createdAt,value
2019-03-02T00:05:07.757Z,12.23
2019-03-02T00:07:36.675Z,10.90
2019-03-02T00:10:09.989Z,9.37
2019-03-02T00:12:39.485Z,11.30
2019-03-02T00:15:11.318Z,9.30
2019-03-02T00:17:40.293Z,8.13
2019-03-02T00:20:14.744Z,11.83
2019-03-02T00:22:44.969Z,10.20
2019-03-02T00:25:16.775Z,11.00
2019-03-02T00:27:45.392Z,13.70
2019-03-02T00:30:17.711Z,8.73
2019-03-02T00:32:49.981Z,13.00
2019-03-02T00:35:18.552Z,17.50
2019-03-02T00:37:47.080Z,10.40
2019-03-02T00:40:18.400Z,10.30
2019-03-02T00:42:51.970Z,12.40
2019-03-02T00:45:20.752Z,10.73
2019-03-02T00:47:49.365Z,12.70
2019-03-02T00:50:20.952Z,9.60
2019-03-02T00:52:49.576Z,10.53
2019-03-02T00:55:20.853Z,9.73
2019-03-02T00:57:50.726Z,11.13
2019-03-02T01:00:22.802Z,12.63
2019-03-02T01:02:51.718Z,9.40
2019-03-02T01:05:20.339Z,11.10
2019-03-02T01:07:52.044Z,13.70
2019-03-02T01:10:23.676Z,11.13
2019-03-02T01:12:55.835Z,10.10
2019-03-02T01:15:27.396Z,11.97
2019-03-02T01:17:56.000Z,18.43
2019-03-02T01:20:28.693Z,16.60
2019-03-02T01:23:01.021Z,8.60
2019-03-02T01:25:33.027Z,9.30
2019-03-02T01:28:06.653Z,12.67
2019-03-02T01:30:40.528Z,12.60
2019-03-02T01:33:15.426Z,9.37
2019-03-02T01:35:47.173Z,11.13
2019-03-02T01:38:19.542Z,16.67
2019-03-02T01:40:50.896Z,13.67
2019-03-02T01:43:22.261Z,10.63
2019-03-02T01:45:54.029Z,17.60
2019-03-02T01:48:26.634Z,12.27
2019-03-02T01:50:56.072Z,12.10
2019-03-02T01:53:24.949Z,22.53
2019-03-02T01:55:56.365Z,16.53
2019-03-02T01:58:28.067Z,9.13
2019-03-02T02:00:57.943Z,19.77
2019-03-02T02:03:26.491Z,25.67
2019-03-02T02:05:57.798Z,14.07
2019-03-02T02:08:29.809Z,11.23
2019-03-02T02:11:01.878Z,12.50
2019-03-02T02:13:33.475Z,11.53
2019-03-02T02:16:05.792Z,14.80
2019-03-02T02:18:39.801Z,18.03
2019-03-02T02:21:09.957Z,10.07
2019-03-02T02:23:41.440Z,12.23
2019-03-02T02:26:13.122Z,11.00
2019-03-02T02:28:41.736Z,16.03
2019-03-02T02:31:10.343Z,10.83
2019-03-02T02:33:43.250Z,11.90
2019-03-02T02:36:14.166Z,16.83
2019-03-02T02:38:43.914Z,11.80
2019-03-02T02:41:22.413Z,9.13
2019-03-02T02:43:48.364Z,10.90
2019-03-02T02:46:19.889Z,13.00
2019-03-02T02:48:48.601Z,17.23
2019-03-02T02:51:20.236Z,11.60
2019-03-02T02:53:48.782Z,10.77
2019-03-02T02:56:21.483Z,12.87
2019-03-02T02:58:55.619Z,18.37
2019-03-02T03:01:20.441Z,11.80
2019-03-02T03:03:48.997Z,12.23
2019-03-02T03:06:20.337Z,17.50
2019-03-02T03:08:48.958Z,14.67
2019-03-02T03:11:20.430Z,16.10
2019-03-02T03:13:51.760Z,13.13
2019-03-02T03:16:20.530Z,21.27
2019-03-02T03:18:53.590Z,11.67
2019-03-02T03:21:27.830Z,14.27
2019-03-02T03:24:03.274Z,10.93
2019-03-02T03:26:30.962Z,23.80
2019-03-02T03:29:05.235Z,10.27
2019-03-02T03:31:31.980Z,16.80
2019-03-02T03:34:03.430Z,9.93
2019-03-02T03:36:34.083Z,11.67
2019-03-02T03:39:06.754Z,15.73
2019-03-02T03:41:42.855Z,13.77
2019-03-02T03:44:07.049Z,12.77
2019-03-02T03:46:39.804Z,13.83
2019-03-02T03:49:11.337Z,12.67
2019-03-02T03:51:42.717Z,13.83
2019-03-02T03:54:11.328Z,15.93
2019-03-02T03:56:44.389Z,14.77
2019-03-02T03:59:14.186Z,15.73
2019-03-02T04:01:44.788Z,19.80
2019-03-02T04:04:16.618Z,16.17
2019-03-02T04:06:48.361Z,15.03
2019-03-02T04:09:17.198Z,15.13
2019-03-02T04:11:45.769Z,23.30
2019-03-02T04:14:19.186Z,16.23
2019-03-02T04:16:50.284Z,15.53
2019-03-02T04:19:24.922Z,10.33
2019-03-02T04:21:56.227Z,16.47
2019-03-02T04:24:27.625Z,12.87
2019-03-02T04:26:58.902Z,15.70
2019-03-02T04:29:27.474Z,16.40
2019-03-02T04:31:59.374Z,15.50
2019-03-02T04:34:30.679Z,15.60
2019-03-02T04:37:02.355Z,11.73
2019-03-02T04:39:30.976Z,11.40
2019-03-02T04:42:02.771Z,16.20
2019-03-02T04:44:34.450Z,12.40
2019-03-02T04:47:06.144Z,13.70
2019-03-02T04:49:34.758Z,17.07
2019-03-02T04:52:11.576Z,14.00
2019-03-02T04:54:39.469Z,19.00
2019-03-02T04:57:08.075Z,13.67
2019-03-02T04:59:39.467Z,19.30
2019-03-02T05:02:11.108Z,12.03
2019-03-02T05:04:42.523Z,12.03
2019-03-02T05:07:14.009Z,18.30
2019-03-02T05:09:42.642Z,15.67
2019-03-02T05:12:14.615Z,21.13
2019-03-02T05:14:43.891Z,14.97
2019-03-02T05:17:12.605Z,17.00
2019-03-02T05:19:41.217Z,11.80
2019-03-02T05:22:15.551Z,17.07
2019-03-02T05:24:45.642Z,22.30
2019-03-02T05:27:17.180Z,14.30
2019-03-02T05:29:50.693Z,20.50
2019-03-02T05:32:19.714Z,12.70
2019-03-02T05:34:48.348Z,20.97
2019-03-02T05:37:19.826Z,15.33
2019-03-02T05:39:52.862Z,14.07
2019-03-02T05:42:24.250Z,14.20
2019-03-02T05:44:55.946Z,19.93
2019-03-02T05:47:24.557Z,18.20
2019-03-02T05:49:54.663Z,17.07
2019-03-02T05:52:23.389Z,21.33
2019-03-02T05:54:52.026Z,16.70
2019-03-02T05:57:20.633Z,22.20
2019-03-02T05:59:52.157Z,23.00
2019-03-02T06:02:23.794Z,29.77
2019-03-02T06:04:53.666Z,22.50
2019-03-02T06:07:25.601Z,16.27
2019-03-02T06:09:57.005Z,17.50
2019-03-02T06:12:28.493Z,23.80
2019-03-02T06:14:57.098Z,17.00
2019-03-02T06:17:29.842Z,24.63
2019-03-02T06:20:02.064Z,22.77
2019-03-02T06:22:33.357Z,19.17
2019-03-02T06:25:01.987Z,17.70
2019-03-02T06:27:33.579Z,16.73
2019-03-02T06:30:04.839Z,18.80
2019-03-02T06:32:35.508Z,23.77
2019-03-02T06:35:04.694Z,17.90
2019-03-02T06:37:33.260Z,25.47
2019-03-02T06:40:09.850Z,16.80
2019-03-02T06:42:41.999Z,22.70
2019-03-02T06:45:20.044Z,16.77
2019-03-02T06:47:49.081Z,25.07
2019-03-02T06:50:21.401Z,20.80
2019-03-02T06:52:50.205Z,21.67
2019-03-02T06:55:20.798Z,17.47
2019-03-02T06:57:52.085Z,24.13
2019-03-02T07:00:21.917Z,24.63
2019-03-02T07:02:53.759Z,26.43
2019-03-02T07:05:22.367Z,27.93
2019-03-02T07:07:57.374Z,34.33
2019-03-02T07:10:26.937Z,22.43
2019-03-02T07:12:57.123Z,22.13
2019-03-02T07:15:28.652Z,23.77
2019-03-02T07:18:16.724Z,27.27
2019-03-02T07:20:46.683Z,27.87
2019-03-02T07:23:15.710Z,23.70
2019-03-02T07:25:44.405Z,30.43
2019-03-02T07:28:15.780Z,27.37
2019-03-02T07:30:44.362Z,26.73
2019-03-02T07:33:15.649Z,25.97
2019-03-02T07:35:44.623Z,26.40
2019-03-02T07:38:16.873Z,33.93
2019-03-02T07:40:49.823Z,28.87
2019-03-02T07:43:18.379Z,28.43
2019-03-02T07:45:49.673Z,28.70
2019-03-02T07:48:21.210Z,22.73
2019-03-02T07:50:49.798Z,46.77
2019-03-02T07:53:18.547Z,88.60
2019-03-02T07:55:47.421Z,28.60
2019-03-02T07:58:16.568Z,39.43
2019-03-02T08:00:49.126Z,45.83
2019-03-02T08:03:20.691Z,33.83
2019-03-02T08:05:52.578Z,76.30
2019-03-02T08:08:24.062Z,39.43
2019-03-02T08:10:52.671Z,34.93
2019-03-02T08:13:22.619Z,25.03
2019-03-02T08:15:51.250Z,27.80
2019-03-02T08:18:25.984Z,30.63
2019-03-02T08:20:57.311Z,34.97
2019-03-02T08:23:29.307Z,28.30
2019-03-02T08:26:00.566Z,31.27
2019-03-02T08:28:32.172Z,27.53
2019-03-02T08:31:05.506Z,32.00
2019-03-02T08:33:45.896Z,34.20
2019-03-02T08:36:13.039Z,33.73
2019-03-02T08:38:42.995Z,32.30
2019-03-02T08:41:11.573Z,29.50
2019-03-02T08:43:43.160Z,29.10
2019-03-02T08:46:14.548Z,32.30
2019-03-02T08:48:45.771Z,24.57
2019-03-02T08:51:18.779Z,35.27
2019-03-02T08:53:48.595Z,28.20
2019-03-02T08:56:17.295Z,32.77
2019-03-02T08:58:46.171Z,34.80
2019-03-02T09:01:18.641Z,33.73
2019-03-02T09:03:50.994Z,43.90
2019-03-02T09:06:19.808Z,29.10
2019-03-02T09:08:51.349Z,60.93
2019-03-02T09:11:22.990Z,56.77
2019-03-02T09:13:54.267Z,43.83
2019-03-02T09:16:25.752Z,43.50
2019-03-02T09:18:57.222Z,48.37
2019-03-02T09:21:25.844Z,39.17
2019-03-02T09:23:57.116Z,27.33
2019-03-02T09:26:28.676Z,30.63
2019-03-02T09:29:00.229Z,28.90
2019-03-02T09:31:35.071Z,29.63
2019-03-02T09:34:04.133Z,19.97
2019-03-02T09:36:32.505Z,26.17
2019-03-02T09:39:04.971Z,26.60
2019-03-02T09:41:33.904Z,20.10
2019-03-02T09:44:02.554Z,21.17
2019-03-02T09:46:33.861Z,24.43
2019-03-02T09:49:07.322Z,20.40
2019-03-02T09:51:38.680Z,21.20
2019-03-02T09:54:10.366Z,18.07
2019-03-02T09:56:40.522Z,23.87
2019-03-02T09:59:14.882Z,23.17
2019-03-02T10:01:48.118Z,26.90
2019-03-02T10:04:19.779Z,21.20
2019-03-02T10:06:50.384Z,31.60
2019-03-02T10:09:21.932Z,17.53
2019-03-02T10:11:51.670Z,23.03
2019-03-02T10:14:26.326Z,23.57
2019-03-02T10:16:54.874Z,21.27
2019-03-02T10:19:28.901Z,19.87
2019-03-02T10:21:56.883Z,21.93
2019-03-02T10:24:28.363Z,25.80
2019-03-02T10:26:59.917Z,17.87
2019-03-02T10:29:32.440Z,19.73
2019-03-02T10:32:01.154Z,20.10
2019-03-02T10:34:34.632Z,18.23
2019-03-02T10:37:08.738Z,19.80
2019-03-02T10:39:39.284Z,24.83
2019-03-02T10:42:10.933Z,18.80
2019-03-02T10:44:42.208Z,19.67
2019-03-02T10:47:10.874Z,35.93
2019-03-02T10:49:44.671Z,17.33
2019-03-02T10:52:15.506Z,22.33
2019-03-02T10:54:44.112Z,18.20
2019-03-02T10:57:16.543Z,15.57
2019-03-02T10:59:47.907Z,16.70
2019-03-02T11:02:20.126Z,17.27
2019-03-02T11:04:58.822Z,16.00
2019-03-02T11:07:32.192Z,16.90
2019-03-02T11:10:09.246Z,22.30
2019-03-02T11:12:56.021Z,13.53
2019-03-02T11:15:31.705Z,18.43
2019-03-02T11:18:04.650Z,21.57
2019-03-02T11:20:38.144Z,17.80
2019-03-02T11:23:09.120Z,27.70
2019-03-02T11:25:54.370Z,19.23
2019-03-02T11:28:28.045Z,16.97
2019-03-02T11:31:18.992Z,15.93
2019-03-02T11:34:00.710Z,10.40
2019-03-02T11:36:33.778Z,11.73
2019-03-02T11:39:22.911Z,11.60
2019-03-02T11:41:55.888Z,14.23
2019-03-02T11:44:31.565Z,13.13
2019-03-02T11:47:04.426Z,12.43
2019-03-02T11:49:54.413Z,15.07
2019-03-02T11:52:39.735Z,10.13
2019-03-02T11:55:11.403Z,12.93
2019-03-02T11:57:44.513Z,11.47
2019-03-02T12:00:21.256Z,8.57
2019-03-02T12:02:53.000Z,16.63
2019-03-02T12:05:29.484Z,16.57
2019-03-02T12:08:17.976Z,10.40
2019-03-02T12:10:57.969Z,8.00
2019-03-02T12:13:33.785Z,11.50
2019-03-02T12:16:05.856Z,15.03
2019-03-02T12:18:38.982Z,11.00
2019-03-02T12:21:18.006Z,10.27
2019-03-02T12:23:47.384Z,14.63
2019-03-02T12:26:23.980Z,10.10
2019-03-02T12:29:02.906Z,11.20
2019-03-02T12:31:36.249Z,13.20
2019-03-02T12:34:11.943Z,9.03
2019-03-02T12:36:49.238Z,12.10
2019-03-02T12:39:29.715Z,18.17
2019-03-02T12:42:03.002Z,14.87
2019-03-02T12:44:38.900Z,8.37
2019-03-02T12:47:29.959Z,9.20
2019-03-02T12:50:03.258Z,9.57
2019-03-02T12:52:52.713Z,20.80
2019-03-02T12:55:23.722Z,13.20
2019-03-02T12:57:59.401Z,11.37
2019-03-02T13:00:44.806Z,9.40
2019-03-02T13:03:34.647Z,14.53
2019-03-02T13:06:04.915Z,11.83
2019-03-02T13:08:50.156Z,20.13
2019-03-02T13:11:25.750Z,15.20
2019-03-02T13:14:14.750Z,12.37
2019-03-02T13:17:03.635Z,14.83
2019-03-02T13:22:31.108Z,13.40
2019-03-02T13:25:20.432Z,12.97
2019-03-02T13:27:56.869Z,15.30
2019-03-02T13:30:36.975Z,17.53
2019-03-02T13:33:30.148Z,14.10
2019-03-02T13:36:07.938Z,16.70
2019-03-02T13:38:42.846Z,16.97
2019-03-02T13:41:18.832Z,19.20
2019-03-02T13:43:51.470Z,17.10
2019-03-02T13:46:24.464Z,15.40
2019-03-02T13:49:05.859Z,18.37
2019-03-02T13:51:38.821Z,12.83
2019-03-02T13:54:11.844Z,13.20
2019-03-02T13:56:50.603Z,13.80
2019-03-02T13:59:27.262Z,13.97
2019-03-02T14:02:04.116Z,12.80
2019-03-02T14:04:53.857Z,13.67
2019-03-02T14:07:31.094Z,13.50
2019-03-02T14:10:04.583Z,10.43
2019-03-02T14:12:55.163Z,14.30
2019-03-02T14:15:25.578Z,12.93
2019-03-02T14:18:15.080Z,9.40
2019-03-02T14:20:48.158Z,14.33
2019-03-02T14:23:31.975Z,8.67
2019-03-02T14:26:08.573Z,12.73
2019-03-02T14:28:48.067Z,10.23
2019-03-02T14:31:27.246Z,8.97
2019-03-02T14:34:09.159Z,9.70
2019-03-02T14:36:42.387Z,10.13
2019-03-02T14:39:16.013Z,7.50
2019-03-02T14:41:51.705Z,9.03
2019-03-02T14:44:33.457Z,9.97
2019-03-02T14:47:09.524Z,7.80
2019-03-02T14:49:43.237Z,9.30
2019-03-02T14:52:32.884Z,13.13
2019-03-02T14:55:01.513Z,10.03
2019-03-02T14:57:31.993Z,9.57
2019-03-02T15:00:05.132Z,6.60
2019-03-02T15:05:26.035Z,7.20
2019-03-02T15:08:01.713Z,7.03
2019-03-02T15:10:37.868Z,9.30
2019-03-02T15:13:26.039Z,12.23
2019-03-02T15:16:15.387Z,7.43
2019-03-02T15:19:06.529Z,8.13
2019-03-02T15:21:44.410Z,8.00
2019-03-02T15:24:20.931Z,10.03
2019-03-02T15:27:08.959Z,6.63
2019-03-02T15:29:46.393Z,10.50
2019-03-02T15:32:25.728Z,9.93
2019-03-02T15:34:59.024Z,20.07
2019-03-02T15:37:38.270Z,10.07
2019-03-02T15:40:28.783Z,14.50
2019-03-02T15:43:08.081Z,8.37
2019-03-02T15:45:55.441Z,11.73
2019-03-02T15:48:27.185Z,11.13
2019-03-02T15:51:11.201Z,11.23
2019-03-02T15:53:59.168Z,17.33
2019-03-02T15:56:45.301Z,12.20
2019-03-02T15:59:37.340Z,9.23
2019-03-02T16:02:10.966Z,12.33
2019-03-02T16:04:52.673Z,9.83
2019-03-02T16:07:22.947Z,9.47
2019-03-02T16:09:53.221Z,8.40
2019-03-02T16:12:29.225Z,7.20
2019-03-02T16:15:05.083Z,11.57
2019-03-02T16:17:53.064Z,10.87
2019-03-02T16:20:35.345Z,11.17
2019-03-02T16:23:09.661Z,14.40
2019-03-02T16:26:02.676Z,13.33
2019-03-02T16:28:54.047Z,11.73
2019-03-02T16:31:41.267Z,20.07
2019-03-02T16:34:16.430Z,11.43
2019-03-02T16:36:49.523Z,19.37
2019-03-02T16:39:39.201Z,15.67
2019-03-02T16:42:12.021Z,15.67
2019-03-02T16:45:01.149Z,13.20
2019-03-02T16:47:34.352Z,12.60
2019-03-02T16:50:16.941Z,12.70
2019-03-02T16:52:50.811Z,10.87
2019-03-02T16:55:21.170Z,11.73
2019-03-02T16:57:56.936Z,15.53
2019-03-02T17:00:30.561Z,18.90
2019-03-02T17:06:01.292Z,13.20
2019-03-02T17:08:40.099Z,17.20
2019-03-02T17:11:16.109Z,16.20
2019-03-02T17:14:01.055Z,16.53
2019-03-02T17:16:49.543Z,14.70
2019-03-02T17:19:28.373Z,14.47
2019-03-02T17:21:59.846Z,20.50
2019-03-02T17:24:38.709Z,16.60
2019-03-02T17:27:11.947Z,18.23
2019-03-02T17:29:54.262Z,22.50
2019-03-02T17:32:41.116Z,17.43
2019-03-02T17:35:32.723Z,16.37
2019-03-02T17:38:17.383Z,27.70
2019-03-02T17:40:53.757Z,25.30
2019-03-02T17:43:24.044Z,22.10
2019-03-02T17:45:54.341Z,24.00
2019-03-02T17:48:38.043Z,20.83
2019-03-02T17:51:15.220Z,27.50
2019-03-02T17:53:51.158Z,21.13
2019-03-02T17:56:26.843Z,18.80
2019-03-02T17:59:04.167Z,19.63
2019-03-02T18:01:34.621Z,21.43
2019-03-02T18:04:21.199Z,26.83
2019-03-02T18:06:52.296Z,21.30
2019-03-02T18:09:25.240Z,17.20
2019-03-02T18:12:03.922Z,20.73
2019-03-02T18:14:34.853Z,19.70
2019-03-02T18:17:05.576Z,22.00
2019-03-02T18:19:34.269Z,22.23
2019-03-02T18:22:06.369Z,20.83
2019-03-02T18:24:35.446Z,32.10
2019-03-02T18:27:03.810Z,26.57
2019-03-02T18:29:32.429Z,23.90
2019-03-02T18:32:02.281Z,36.23
2019-03-02T18:34:31.181Z,23.07
2019-03-02T18:36:59.711Z,29.70
2019-03-02T18:39:28.559Z,22.70
2019-03-02T18:41:58.133Z,26.60
2019-03-02T18:44:27.890Z,32.37
2019-03-02T18:46:59.754Z,34.57
2019-03-02T18:49:30.453Z,35.10
2019-03-02T18:52:03.877Z,34.10
2019-03-02T18:54:32.486Z,34.50
2019-03-02T18:57:01.197Z,27.60
2019-03-02T18:59:32.978Z,26.27
2019-03-02T19:02:05.012Z,30.80
2019-03-02T19:04:33.597Z,28.07
2019-03-02T19:07:03.315Z,23.90
2019-03-02T19:09:33.436Z,26.77
2019-03-02T19:12:02.060Z,35.43
2019-03-02T19:14:30.692Z,33.53
2019-03-02T19:16:59.451Z,25.40
2019-03-02T19:19:28.089Z,26.57
2019-03-02T19:21:56.802Z,23.90
2019-03-02T19:24:25.445Z,26.47
2019-03-02T19:26:54.033Z,26.73
2019-03-02T19:29:22.661Z,24.73
2019-03-02T19:31:51.275Z,28.13
2019-03-02T19:34:19.895Z,30.33
2019-03-02T19:36:51.586Z,25.57
2019-03-02T19:39:22.633Z,28.60
2019-03-02T19:41:51.361Z,28.10
2019-03-02T19:44:22.971Z,25.67
2019-03-02T19:46:51.572Z,29.30
2019-03-02T19:49:20.294Z,27.00
2019-03-02T19:51:49.710Z,24.90
2019-03-02T19:54:18.347Z,23.50
2019-03-02T19:56:46.955Z,27.97
2019-03-02T19:59:15.581Z,27.40
2019-03-02T20:01:50.235Z,23.67
2019-03-02T20:04:18.959Z,23.17
2019-03-02T20:06:47.571Z,27.77
2019-03-02T20:09:16.280Z,25.03
2019-03-02T20:11:44.891Z,27.13
2019-03-02T20:14:16.571Z,28.00
2019-03-02T20:16:45.287Z,31.60
2019-03-02T20:19:16.966Z,27.73
2019-03-02T20:21:45.783Z,34.10
2019-03-02T20:24:14.396Z,30.80
2019-03-02T20:26:43.158Z,39.80
2019-03-02T20:29:11.818Z,31.90
2019-03-02T20:31:40.445Z,26.40
2019-03-02T20:34:12.027Z,29.47
2019-03-02T20:36:43.658Z,28.13
2019-03-02T20:39:12.242Z,30.57
2019-03-02T20:41:40.853Z,31.43
2019-03-02T20:44:09.487Z,30.97
2019-03-02T20:46:40.479Z,35.47
2019-03-02T20:49:15.142Z,34.50
2019-03-02T20:51:46.838Z,36.30
2019-03-02T20:54:15.553Z,37.13
2019-03-02T20:56:45.807Z,39.43
2019-03-02T20:59:17.379Z,46.27
2019-03-02T21:01:46.002Z,35.47
2019-03-02T21:04:14.601Z,37.17
2019-03-02T21:06:43.311Z,36.67
2019-03-02T21:09:11.891Z,39.53
2019-03-02T21:11:40.533Z,43.70
2019-03-02T21:14:15.306Z,38.20
2019-03-02T21:16:44.028Z,39.90
2019-03-02T21:19:16.019Z,35.40
2019-03-02T21:21:44.730Z,38.20
2019-03-02T21:24:13.352Z,43.53
2019-03-02T21:26:41.971Z,38.13
2019-03-02T21:29:10.578Z,47.17
2019-03-02T21:31:41.963Z,43.80
2019-03-02T21:34:13.647Z,42.77
2019-03-02T21:36:42.664Z,48.03
2019-03-02T21:39:11.485Z,39.63
2019-03-02T21:41:40.395Z,32.30
2019-03-02T21:44:11.881Z,34.00
2019-03-02T21:46:40.480Z,39.30
2019-03-02T21:49:13.611Z,43.80
2019-03-02T21:51:42.584Z,49.70
2019-03-02T21:54:14.318Z,40.10
2019-03-02T21:56:42.918Z,46.97
2019-03-02T21:59:14.396Z,59.53
2019-03-02T22:01:43.016Z,43.83
2019-03-02T22:04:14.602Z,48.33
2019-03-02T22:06:46.194Z,37.87
2019-03-02T22:09:17.783Z,48.80
2019-03-02T22:11:49.769Z,41.10
2019-03-02T22:14:18.357Z,37.63
2019-03-02T22:16:46.982Z,43.73
2019-03-02T22:19:15.599Z,44.20
2019-03-02T22:21:44.229Z,49.27
2019-03-02T22:24:12.943Z,35.30
2019-03-02T22:26:44.828Z,42.70
2019-03-02T22:29:16.815Z,40.07
2019-03-02T22:31:45.428Z,48.00
2019-03-02T22:34:16.715Z,48.00
2019-03-02T22:36:48.509Z,44.07
2019-03-02T22:39:20.082Z,51.07
2019-03-02T22:41:51.575Z,44.27
2019-03-02T22:44:20.213Z,42.30
2019-03-02T22:46:48.832Z,46.37
2019-03-02T22:49:20.537Z,43.83
2019-03-02T22:51:49.154Z,50.97
2019-03-02T22:54:20.832Z,47.33
2019-03-02T22:56:49.542Z,45.40
2019-03-02T22:59:21.739Z,45.37
2019-03-02T23:02:02.253Z,44.10
2019-03-02T23:04:34.012Z,45.53
2019-03-02T23:07:05.592Z,47.00
2019-03-02T23:09:37.199Z,41.33
2019-03-02T23:12:05.814Z,46.30
2019-03-02T23:14:34.776Z,46.60
2019-03-02T23:17:08.114Z,53.93
2019-03-02T23:19:36.443Z,47.70
2019-03-02T23:22:08.407Z,50.00
2019-03-02T23:24:38.860Z,57.03
2019-03-02T23:27:10.644Z,48.90
2019-03-02T23:29:42.643Z,53.40
2019-03-02T23:32:11.217Z,54.53
2019-03-02T23:34:42.528Z,47.67
2019-03-02T23:37:11.138Z,52.10
2019-03-02T23:39:42.613Z,54.70
2019-03-02T23:42:13.989Z,52.63
2019-03-02T23:44:45.363Z,51.70
2019-03-02T23:47:16.943Z,50.50
2019-03-02T23:49:48.518Z,57.60
2019-03-02T23:52:17.130Z,58.43
2019-03-02T23:54:45.682Z,51.43
2019-03-02T23:57:15.076Z,50.10
2019-03-02T23:59:44.098Z,49.33
